Time;durP1;ratioP1;P1;durP2;ratioP2;P2;SDS_P1;SDS_P2;PMS_P1;PMS_P2;Temp;Humidity;BMP_temperature;BMP_pressure;BME280_temperature;BME280_humidity;BME280_pressure;Samples;Min_cycle;Max_cycle;Signal;HPM_P1;HPM_P2
2022/08/23 00:01:15;;;;;;;3.47;2.45;;;15.30;99.90;;;;;;5096265;28;20115;-73
2022/08/23 00:03:41;;;;;;;4.22;2.58;;;15.30;99.90;;;;;;5096344;28;20032;-73
2022/08/23 00:06:09;;;;;;;3.92;2.42;;;15.30;99.90;;;;;;5095068;28;20515;-73
2022/08/23 00:08:35;;;;;;;4.13;2.78;;;15.30;99.90;;;;;;5096370;28;20502;-74
2022/08/23 00:11:00;;;;;;;4.43;2.33;;;15.30;99.90;;;;;;5095982;28;20032;-73
2022/08/23 00:13:27;;;;;;;4.93;2.55;;;15.30;99.90;;;;;;5096365;28;20052;-73
2022/08/23 00:15:54;;;;;;;3.95;2.60;;;15.20;99.90;;;;;;5094773;28;20024;-74
2022/08/23 00:18:21;;;;;;;3.55;2.38;;;15.30;99.90;;;;;;5096023;28;20430;-74
2022/08/23 00:20:48;;;;;;;4.10;2.50;;;15.30;99.90;;;;;;5095867;28;20023;-73
2022/08/23 00:23:13;;;;;;;2.97;2.20;;;15.20;99.90;;;;;;5095904;28;20052;-74
2022/08/23 00:25:39;;;;;;;4.03;2.35;;;15.20;99.90;;;;;;5094542;28;20063;-74
2022/08/23 00:28:05;;;;;;;4.63;3.05;;;15.10;99.90;;;;;;5094710;28;20050;-74
2022/08/23 00:30:31;;;;;;;2.97;2.17;;;15.10;99.90;;;;;;5095648;28;20388;-74
2022/08/23 00:32:56;;;;;;;3.70;2.80;;;15.00;99.90;;;;;;5095894;28;20077;-73
2022/08/23 00:35:22;;;;;;;7.03;2.80;;;14.90;99.90;;;;;;5095646;28;20059;-73
2022/08/23 00:37:48;;;;;;;3.53;2.60;;;14.80;99.90;;;;;;5095640;28;20020;-73
2022/08/23 00:40:17;;;;;;;3.35;2.70;;;14.70;99.90;;;;;;5095618;28;20426;-73
2022/08/23 00:48:44;;;;;;;4.30;2.67;;;14.70;99.90;;;;;;5095998;28;20031;-74
2022/08/23 00:51:15;;;;;;;4.47;3.00;;;14.70;99.90;;;;;;5095228;28;20028;-73
2022/08/23 00:53:46;;;;;;;3.97;2.70;;;14.60;99.90;;;;;;5095920;28;20048;-73
2022/08/23 00:56:16;;;;;;;4.93;2.40;;;14.50;99.90;;;;;;5095624;28;20024;-73
2022/08/23 00:58:41;;;;;;;3.55;2.33;;;14.40;99.90;;;;;;5095540;28;20020;-72
2022/08/23 01:01:07;;;;;;;5.13;2.70;;;14.40;99.90;;;;;;5095140;28;20140;-73
2022/08/23 01:03:36;;;;;;;3.70;2.55;;;14.40;99.90;;;;;;5095143;28;20031;-73
2022/08/23 01:06:18;;;;;;;4.40;2.70;;;14.50;99.90;;;;;;5093785;28;20020;-73
2022/08/23 01:08:48;;;;;;;3.72;3.00;;;14.50;99.90;;;;;;5094973;28;20511;-73
2022/08/23 01:11:32;;;;;;;3.38;2.58;;;14.40;99.90;;;;;;5093619;28;20111;-73
2022/08/23 01:14:10;;;;;;;3.72;2.67;;;14.50;99.90;;;;;;5095230;28;20123;-73
2022/08/23 01:16:44;;;;;;;3.17;2.47;;;14.50;99.90;;;;;;5094922;28;20062;-73
2022/08/23 01:19:18;;;;;;;7.68;2.90;;;14.60;99.90;;;;;;5095460;28;20062;-72
2022/08/23 01:22:00;;;;;;;4.97;2.90;;;14.60;99.90;;;;;;5094786;28;20073;-73
2022/08/23 01:24:26;;;;;;;;;;;14.70;99.90;;;;;;5095431;28;20503;-73
2022/08/23 01:26:52;;;;;;;6.55;2.85;;;14.70;99.90;;;;;;5093397;28;20342;-73
2022/08/23 01:29:17;;;;;;;3.50;2.65;;;14.70;99.90;;;;;;5094944;28;20032;-73
2022/08/23 01:31:43;;;;;;;3.78;2.92;;;14.80;99.90;;;;;;5094463;28;20469;-73
2022/08/23 01:34:12;;;;;;;3.53;2.60;;;14.80;99.90;;;;;;5095128;28;20024;-73
2022/08/23 01:36:40;;;;;;;3.58;2.88;;;14.80;99.90;;;;;;5094538;28;20491;-73
2022/08/23 01:39:07;;;;;;;4.20;2.58;;;14.80;99.90;;;;;;5093016;28;20028;-73
2022/08/23 01:41:33;;;;;;;4.30;2.88;;;14.80;99.90;;;;;;5094745;28;20393;-73
2022/08/23 01:43:59;;;;;;;5.95;2.90;;;14.80;99.90;;;;;;5094395;28;20031;-72
2022/08/23 01:46:25;;;;;;;4.50;2.70;;;14.80;99.90;;;;;;5094319;28;20055;-73
2022/08/23 01:48:54;;;;;;;5.05;2.83;;;14.80;99.90;;;;;;5094313;28;20028;-73
2022/08/23 01:51:21;;;;;;;3.70;2.70;;;14.90;99.90;;;;;;5094129;28;20027;-73
2022/08/23 01:53:46;;;;;;;5.90;2.60;;;14.90;99.90;;;;;;5093033;28;20056;-72
2022/08/23 01:56:14;;;;;;;3.58;2.50;;;14.90;99.90;;;;;;5094168;28;20058;-72
2022/08/23 01:58:40;;;;;;;4.20;2.70;;;14.90;99.90;;;;;;5094138;28;20422;-72
2022/08/23 02:01:06;;;;;;;4.88;2.63;;;14.80;99.90;;;;;;5094306;28;20028;-72
2022/08/23 02:03:32;;;;;;;3.75;2.60;;;14.80;99.90;;;;;;5094094;28;20069;-72
2022/08/23 02:05:58;;;;;;;8.38;3.00;;;14.80;99.90;;;;;;5093059;28;20024;-72
2022/08/23 02:11:12;;;;;;;4.25;2.97;;;14.80;99.90;;;;;;5093963;28;20031;-73
2022/08/23 02:13:38;;;;;;;5.38;3.08;;;14.80;99.90;;;;;;5093900;28;20028;-73
2022/08/23 02:16:04;;;;;;;4.18;3.00;;;14.80;99.90;;;;;;5093819;28;20020;-74
2022/08/23 02:18:30;;;;;;;4.65;2.90;;;14.80;99.90;;;;;;5094112;28;20027;-73
2022/08/23 02:20:55;;;;;;;5.93;3.25;;;14.80;99.90;;;;;;5093310;28;20430;-73
2022/08/23 02:23:22;;;;;;;3.95;2.90;;;14.70;99.90;;;;;;5093781;28;20040;-74
2022/08/23 02:25:50;;;;;;;4.03;2.67;;;14.70;99.90;;;;;;5093699;28;20081;-74
2022/08/23 02:28:16;;;;;;;3.67;2.72;;;14.70;99.90;;;;;;5093685;28;20453;-74
2022/08/23 02:30:44;;;;;;;3.83;2.63;;;14.70;99.90;;;;;;5093563;28;20024;-74
2022/08/23 02:33:09;;;;;;;4.13;2.55;;;14.70;99.90;;;;;;5092261;28;20020;-74
2022/08/23 02:35:35;;;;;;;3.90;2.60;;;14.80;99.90;;;;;;5092943;28;20032;-74
2022/08/23 02:38:05;;;;;;;4.30;2.50;;;14.80;99.90;;;;;;5093560;28;20069;-73
2022/08/23 02:40:32;;;;;;;3.58;2.67;;;14.80;99.90;;;;;;5093520;28;20024;-74
2022/08/23 02:42:58;;;;;;;4.68;2.90;;;14.80;99.90;;;;;;5093467;28;20020;-73
2022/08/23 02:45:25;;;;;;;6.38;2.92;;;14.80;99.90;;;;;;5092239;28;20028;-74
2022/08/23 02:47:51;;;;;;;3.58;2.72;;;14.80;99.90;;;;;;5093483;28;20107;-73
2022/08/23 02:50:17;;;;;;;7.72;2.80;;;14.80;99.90;;;;;;5093707;28;20490;-73
2022/08/23 02:52:43;;;;;;;5.20;2.72;;;14.90;99.90;;;;;;5097622;28;20028;-73
2022/08/23 02:55:09;;;;;;;3.28;2.40;;;14.80;99.90;;;;;;5096385;28;20361;-74
2022/08/23 02:57:35;;;;;;;6.47;3.00;;;14.80;99.90;;;;;;5096364;28;20107;-73
2022/08/23 03:00:02;;;;;;;4.72;3.30;;;14.80;99.90;;;;;;5097514;28;20123;-73
2022/08/23 03:02:28;;;;;;;4.30;2.80;;;14.80;99.90;;;;;;5097433;28;20035;-72
2022/08/23 03:04:54;;;;;;;4.15;3.00;;;14.70;99.90;;;;;;5097689;28;20472;-74
2022/08/23 03:07:19;;;;;;;4.20;3.00;;;14.70;99.90;;;;;;5096134;28;20040;-74
2022/08/23 03:09:45;;;;;;;3.95;2.65;;;14.70;99.90;;;;;;5097652;28;20033;-74
2022/08/23 03:12:11;;;;;;;4.85;3.00;;;14.70;99.90;;;;;;5097227;28;20036;-73
2022/08/23 03:14:37;;;;;;;4.85;2.97;;;14.70;99.90;;;;;;5096100;28;20050;-74
2022/08/23 03:17:03;;;;;;;4.07;2.65;;;14.70;99.90;;;;;;5097238;28;20086;-74
2022/08/23 03:19:29;;;;;;;6.50;3.20;;;14.70;99.90;;;;;;5097174;28;20024;-74
2022/08/23 03:21:55;;;;;;;4.90;3.03;;;14.70;99.90;;;;;;5097059;28;20107;-73
2022/08/23 03:24:21;;;;;;;4.80;2.92;;;14.70;99.90;;;;;;5097317;28;20177;-74
2022/08/23 03:26:46;;;;;;;3.85;3.05;;;14.70;99.90;;;;;;5097291;28;20028;-74
2022/08/23 03:29:12;;;;;;;3.40;2.70;;;14.70;99.90;;;;;;5096976;28;20092;-74
2022/08/23 03:31:38;;;;;;;3.78;2.80;;;14.70;99.90;;;;;;5096952;28;20032;-73
2022/08/23 03:34:05;;;;;;;5.38;2.90;;;14.70;99.90;;;;;;5097154;28;20475;-73
2022/08/23 03:36:31;;;;;;;3.33;2.70;;;14.70;99.90;;;;;;5095956;28;20020;-74
2022/08/23 03:38:58;;;;;;;4.82;2.88;;;14.70;99.90;;;;;;5096795;28;20384;-72
2022/08/23 03:41:24;;;;;;;4.65;2.80;;;14.70;99.90;;;;;;5096955;28;20114;-72
2022/08/23 03:43:49;;;;;;;4.30;2.85;;;14.70;99.90;;;;;;5096743;28;20032;-73
2022/08/23 03:46:22;;;;;;;4.70;3.00;;;14.70;99.90;;;;;;5095411;28;20031;-73
2022/08/23 03:48:54;;;;;;;4.95;2.80;;;14.70;99.90;;;;;;5097198;28;20024;-73
2022/08/23 03:51:21;;;;;;;4.05;2.90;;;14.70;99.90;;;;;;5096746;28;20024;-73
2022/08/23 03:53:48;;;;;;;4.00;2.83;;;14.70;99.90;;;;;;5096529;28;20048;-73
2022/08/23 03:56:35;;;;;;;3.58;2.75;;;14.60;99.90;;;;;;5096789;28;20476;-73
2022/08/23 03:59:06;;;;;;;4.95;2.70;;;14.60;99.90;;;;;;5096707;28;20021;-74
2022/08/23 04:01:32;;;;;;;5.20;3.60;;;14.60;99.90;;;;;;5096455;28;20022;-73
2022/08/23 04:03:58;;;;;;;4.50;3.20;;;14.60;99.90;;;;;;5096284;28;20029;-74
2022/08/23 04:06:26;;;;;;;3.90;2.72;;;14.50;99.90;;;;;;5096255;28;20024;-74
2022/08/23 04:08:53;;;;;;;5.35;3.42;;;14.40;99.90;;;;;;5096168;28;20059;-73
2022/08/23 04:11:20;;;;;;;4.05;3.25;;;14.40;99.90;;;;;;5096227;28;20065;-73
2022/08/23 04:13:46;;;;;;;5.55;3.58;;;14.30;99.90;;;;;;5096088;28;20057;-74
2022/08/23 04:16:12;;;;;;;4.80;3.10;;;14.30;99.90;;;;;;5096041;28;20016;-74
2022/08/23 04:18:38;;;;;;;4.97;3.30;;;14.20;99.90;;;;;;5095997;28;20095;-74
2022/08/23 04:21:09;;;;;;;6.00;3.42;;;14.20;99.90;;;;;;5095872;28;20032;-72
2022/08/23 04:23:36;;;;;;;7.00;3.92;;;14.30;99.90;;;;;;5094685;28;20559;-74
2022/08/23 04:26:03;;;;;;;8.32;3.95;;;14.30;99.90;;;;;;5095859;28;20032;-71
2022/08/23 04:28:28;;;;;;;3.90;3.17;;;14.30;99.90;;;;;;5078520;28;20098;-72
2022/08/23 04:30:54;;;;;;;5.28;3.40;;;14.30;99.90;;;;;;5095950;28;20028;-72
2022/08/23 04:33:20;;;;;;;4.13;3.10;;;14.40;99.90;;;;;;5096297;28;20028;-72
2022/08/23 04:35:45;;;;;;;3.65;3.00;;;14.30;99.90;;;;;;5095631;28;20036;-72
2022/08/23 04:38:11;;;;;;;5.25;3.22;;;14.40;99.90;;;;;;5095702;28;20047;-72
2022/08/23 04:43:21;;;;;;;3.80;3.00;;;14.40;99.90;;;;;;5094671;28;20549;-71
2022/08/23 04:45:48;;;;;;;4.15;2.83;;;14.50;99.90;;;;;;5094248;28;20031;-72
2022/08/23 04:48:13;;;;;;;5.55;3.42;;;14.50;99.90;;;;;;5095486;28;20376;-72
2022/08/23 04:50:40;;;;;;;3.83;2.80;;;14.50;99.90;;;;;;5095700;28;20039;-72
2022/08/23 04:53:06;;;;;;;3.70;3.13;;;14.50;99.90;;;;;;5095675;28;20433;-72
2022/08/23 04:55:31;;;;;;;3.50;2.75;;;14.50;99.90;;;;;;5095321;28;20103;-72
2022/08/23 04:57:57;;;;;;;4.72;3.22;;;14.50;99.90;;;;;;5094154;28;20101;-72
2022/08/23 05:00:23;;;;;;;5.43;3.30;;;14.50;99.90;;;;;;5077144;28;20055;-72
2022/08/23 05:02:49;;;;;;;5.43;3.55;;;14.60;99.90;;;;;;5077052;28;20031;-72
2022/08/23 05:05:16;;;;;;;4.68;3.40;;;14.50;99.90;;;;;;5095123;28;20099;-72
2022/08/23 05:07:41;;;;;;;4.05;3.03;;;14.50;99.90;;;;;;5093798;28;20050;-72
2022/08/23 05:10:11;;;;;;;5.13;3.08;;;14.50;99.90;;;;;;5094400;28;20395;-72
2022/08/23 05:12:37;;;;;;;5.22;3.13;;;14.50;99.90;;;;;;5094355;28;20016;-71
2022/08/23 05:15:03;;;;;;;5.03;3.58;;;14.50;99.90;;;;;;5093652;28;20043;-72
2022/08/23 05:17:28;;;;;;;5.20;3.45;;;14.50;99.90;;;;;;5076757;28;20030;-72
2022/08/23 05:19:54;;;;;;;4.97;3.50;;;14.50;99.90;;;;;;5093559;28;20055;-72
2022/08/23 05:22:21;;;;;;;7.03;3.65;;;14.50;99.90;;;;;;5095006;28;20081;-71
2022/08/23 05:24:46;;;;;;;5.28;3.70;;;14.50;99.90;;;;;;5095021;28;20030;-72
2022/08/23 05:27:12;;;;;;;8.73;3.88;;;14.50;99.90;;;;;;5093432;28;20122;-72
2022/08/23 05:29:38;;;;;;;4.82;3.65;;;14.40;99.90;;;;;;5093453;28;20032;-72
2022/08/23 05:32:04;;;;;;;4.88;2.85;;;14.50;99.90;;;;;;5094486;28;20027;-71
2022/08/23 05:34:30;;;;;;;3.65;3.10;;;14.50;99.90;;;;;;5094634;28;20021;-72
2022/08/23 05:36:56;;;;;;;3.90;3.30;;;14.60;99.90;;;;;;5094488;28;20050;-71
2022/08/23 05:39:21;;;;;;;4.97;3.75;;;14.60;99.90;;;;;;5094822;28;20084;-72
2022/08/23 05:41:47;;;;;;;5.72;3.85;;;14.70;99.90;;;;;;5094725;28;20025;-71
2022/08/23 05:44:13;;;;;;;7.32;3.85;;;14.70;99.90;;;;;;5093503;28;20553;-72
2022/08/23 05:46:40;;;;;;;5.32;3.63;;;14.80;99.90;;;;;;5093163;28;20035;-73
2022/08/23 05:49:07;;;;;;;7.50;3.85;;;14.90;99.90;;;;;;5093705;28;20051;-73
2022/08/23 05:51:34;;;;;;;5.93;4.00;;;15.00;99.90;;;;;;5091819;28;20115;-71
2022/08/23 05:54:04;;;;;;;4.63;3.80;;;15.00;99.90;;;;;;5092492;28;20503;-73
2022/08/23 05:56:41;;;;;;;6.83;4.07;;;15.10;99.90;;;;;;5092950;28;20392;-72
2022/08/23 05:59:09;;;;;;;7.07;3.90;;;15.10;99.90;;;;;;5094084;28;20024;-71
2022/08/23 06:01:36;;;;;;;7.30;4.55;;;15.20;99.90;;;;;;5082476;28;20020;-71
2022/08/23 06:04:06;;;;;;;6.90;4.10;;;15.30;99.90;;;;;;5101120;28;20063;-71
2022/08/23 06:06:33;;;;;;;5.20;4.00;;;15.30;99.90;;;;;;5094613;28;20024;-71
2022/08/23 06:08:59;;;;;;;7.72;4.20;;;15.30;99.90;;;;;;5093953;28;20035;-71
2022/08/23 06:11:28;;;;;;;9.60;4.88;;;15.40;99.90;;;;;;5093923;28;20515;-72
2022/08/23 06:13:57;;;;;;;8.90;4.70;;;15.40;99.90;;;;;;5094200;28;20024;-72
2022/08/23 06:16:28;;;;;;;6.43;4.25;;;15.50;99.90;;;;;;5094924;28;20365;-72
2022/08/23 06:18:56;;;;;;;7.00;4.90;;;15.50;99.90;;;;;;5094162;28;20016;-73
2022/08/23 06:21:23;;;;;;;6.32;4.55;;;15.60;99.90;;;;;;5092369;28;20073;-72
2022/08/23 06:23:49;;;;;;;8.80;5.78;;;15.60;99.90;;;;;;5092434;28;20064;-73
2022/08/23 06:26:24;;;;;;;8.73;5.53;;;15.70;99.90;;;;;;5092051;28;20565;-72
2022/08/23 06:28:52;;;;;;;7.60;5.10;;;15.70;99.90;;;;;;5093738;28;20028;-72
2022/08/23 06:31:44;;;;;;;7.25;4.97;;;15.80;99.90;;;;;;5092526;28;20123;-72
2022/08/23 06:34:06;;;;;;;10.43;4.57;;;15.90;99.90;;;;;;5093468;28;20536;-73
2022/08/23 06:36:32;;;;;;;8.63;4.25;;;16.00;99.90;;;;;;5093580;28;20028;-72
2022/08/23 06:38:58;;;;;;;7.22;4.43;;;16.00;99.90;;;;;;5092280;28;20082;-73
2022/08/23 06:41:23;;;;;;;8.05;4.55;;;16.10;99.90;;;;;;5094022;28;20492;-72
2022/08/23 06:43:50;;;;;;;8.88;4.85;;;16.20;99.90;;;;;;5075437;28;20115;-72
2022/08/23 06:46:18;;;;;;;8.15;4.90;;;16.30;99.90;;;;;;5093055;28;20024;-72
2022/08/23 06:48:45;;;;;;;8.90;4.63;;;16.40;99.90;;;;;;5093720;28;20345;-72
2022/08/23 06:51:31;;;;;;;6.75;4.50;;;16.50;99.90;;;;;;5075245;28;20039;-72
2022/08/23 06:53:59;;;;;;;6.72;4.13;;;16.60;99.90;;;;;;5094253;28;20519;-71
2022/08/23 06:56:26;;;;;;;5.28;3.72;;;16.60;99.90;;;;;;5093927;28;20107;-72
2022/08/23 06:58:52;;;;;;;6.50;3.30;;;16.60;99.90;;;;;;5093671;28;20115;-71
2022/08/23 07:01:31;;;;;;;7.95;4.47;;;16.70;99.90;;;;;;5093615;28;20119;-72
2022/08/23 07:03:58;;;;;;;6.47;3.92;;;16.80;99.90;;;;;;5093399;28;20020;-71
2022/08/23 07:06:25;;;;;;;4.47;3.08;;;16.80;99.90;;;;;;5092119;28;20107;-72
2022/08/23 07:08:51;;;;;;;4.50;2.83;;;16.80;99.90;;;;;;5093204;28;20044;-72
2022/08/23 07:11:18;;;;;;;5.50;3.38;;;16.80;99.90;;;;;;5092372;28;20028;-71
2022/08/23 07:13:44;;;;;;;7.32;3.10;;;16.80;99.90;;;;;;5093233;28;20055;-71
2022/08/23 07:16:11;;;;;;;5.07;2.78;;;16.80;99.90;;;;;;5093620;28;20024;-71
2022/08/23 07:18:37;;;;;;;4.18;2.67;;;16.70;99.90;;;;;;5093522;28;20051;-72
2022/08/23 07:21:05;;;;;;;4.80;2.85;;;16.70;99.90;;;;;;5093090;28;20084;-72
2022/08/23 07:23:32;;;;;;;8.48;3.33;;;16.70;99.90;;;;;;5093694;28;20099;-71
2022/08/23 07:26:05;;;;;;;5.50;2.65;;;16.70;99.90;;;;;;5093373;28;20039;-72
2022/08/23 07:28:31;;;;;;;6.28;2.45;;;16.70;99.90;;;;;;5093408;28;20373;-72
2022/08/23 07:31:16;;;;;;;3.15;2.78;;;16.70;99.90;;;;;;5093186;28;20043;-72
2022/08/23 07:33:44;;;;;;;4.30;2.70;;;16.70;99.90;;;;;;5091804;28;20107;-72
2022/08/23 07:36:16;;;;;;;4.63;2.70;;;16.70;99.90;;;;;;5094509;28;20020;-73
2022/08/23 07:38:43;;;;;;;4.47;2.80;;;16.80;99.90;;;;;;5095616;28;20027;-72
2022/08/23 07:41:08;;;;;;;4.72;2.50;;;16.80;99.90;;;;;;5096982;28;20380;-73
2022/08/23 07:43:35;;;;;;;4.85;2.92;;;17.00;99.90;;;;;;5079033;28;20036;-73
2022/08/23 07:46:02;;;;;;;5.60;3.15;;;17.00;99.90;;;;;;5095771;28;20024;-72
2022/08/23 07:48:28;;;;;;;5.25;2.83;;;17.20;99.90;;;;;;5096625;28;20067;-72
2022/08/23 07:50:57;;;;;;;5.97;3.03;;;17.30;99.90;;;;;;5096421;28;20032;-73
2022/08/23 07:53:23;;;;;;;5.20;3.00;;;17.40;99.90;;;;;;5096523;28;20039;-73
2022/08/23 07:55:50;;;;;;;5.75;3.28;;;17.60;99.90;;;;;;5095272;28;20492;-73
2022/08/23 07:58:16;;;;;;;5.72;3.05;;;17.70;99.90;;;;;;5096772;28;20031;-73
2022/08/23 08:00:42;;;;;;;4.43;3.15;;;17.80;99.90;;;;;;5096425;28;20024;-73
2022/08/23 08:03:10;;;;;;;5.75;3.33;;;17.90;99.90;;;;;;5096325;28;20077;-73
2022/08/23 08:05:36;;;;;;;5.72;3.00;;;17.90;99.90;;;;;;5096589;28;20020;-72
2022/08/23 08:08:03;;;;;;;4.43;2.88;;;18.00;99.90;;;;;;5096177;28;20500;-72
2022/08/23 08:10:29;;;;;;;5.82;3.17;;;18.00;99.90;;;;;;5094981;28;20035;-73
2022/08/23 08:12:54;;;;;;;4.13;3.03;;;18.00;99.90;;;;;;5094818;28;20028;-72
2022/08/23 08:15:21;;;;;;;5.85;3.20;;;18.10;99.90;;;;;;5094957;28;20020;-73
2022/08/23 08:17:48;;;;;;;3.90;2.70;;;18.20;99.90;;;;;;5096372;28;20460;-72
2022/08/23 08:20:15;;;;;;;3.78;2.60;;;18.40;99.90;;;;;;5094738;28;20032;-73
2022/08/23 08:22:41;;;;;;;5.20;2.78;;;18.50;99.90;;;;;;5096008;28;20061;-73
2022/08/23 08:25:07;;;;;;;5.57;3.55;;;18.50;99.90;;;;;;5095972;28;20078;-74
2022/08/23 08:27:33;;;;;;;4.75;2.70;;;18.70;99.90;;;;;;5095905;28;20028;-73
2022/08/23 08:29:59;;;;;;;5.40;2.80;;;18.80;99.90;;;;;;5095873;28;20020;-73
2022/08/23 08:32:25;;;;;;;5.60;3.08;;;18.90;99.90;;;;;;5095782;28;20028;-72
2022/08/23 08:34:51;;;;;;;4.20;2.78;;;19.10;99.90;;;;;;5094464;28;20024;-73
2022/08/23 08:37:17;;;;;;;4.35;2.38;;;19.20;99.20;;;;;;5095986;28;20065;-73
2022/08/23 08:39:45;;;;;;;4.65;2.55;;;19.30;98.60;;;;;;5094541;28;20028;-72
2022/08/23 08:42:11;;;;;;;5.03;2.58;;;19.30;98.70;;;;;;5095503;28;20032;-74
2022/08/23 08:45:05;;;;;;;6.68;2.58;;;19.40;99.10;;;;;;5095569;28;20154;-74
2022/08/23 08:47:51;;;;;;;4.93;2.63;;;19.50;98.60;;;;;;5094766;28;20082;-72
2022/08/23 08:50:17;;;;;;;3.80;2.25;;;19.70;97.50;;;;;;5094109;28;20051;-73
2022/08/23 08:52:51;;;;;;;4.07;2.28;;;19.80;97.70;;;;;;5095322;28;20071;-73
2022/08/23 08:55:26;;;;;;;3.33;2.25;;;19.90;96.90;;;;;;5094355;28;20144;-73
2022/08/23 08:57:53;;;;;;;3.78;2.25;;;20.00;95.40;;;;;;5095228;28;20035;-74
2022/08/23 09:00:31;;;;;;;3.53;1.92;;;20.00;95.10;;;;;;5095115;28;20468;-73
2022/08/23 09:02:58;;;;;;;5.15;2.30;;;20.20;94.90;;;;;;5094409;28;20024;-74
2022/08/23 09:05:30;;;;;;;3.35;1.75;;;20.30;94.60;;;;;;5095433;28;20028;-74
2022/08/23 09:07:56;;;;;;;3.13;2.38;;;20.40;93.20;;;;;;5095032;28;20032;-74
2022/08/23 09:10:41;;;;;;;4.00;2.28;;;20.50;93.40;;;;;;5093726;28;20031;-73
2022/08/23 09:13:36;;;;;;;5.50;2.22;;;20.60;93.20;;;;;;5095294;28;20380;-71
2022/08/23 09:16:26;;;;;;;3.72;2.05;;;20.70;92.30;;;;;;5084585;28;20024;-73
2022/08/23 09:18:55;;;;;;;3.75;2.20;;;20.80;93.10;;;;;;5094962;28;20024;-74
2022/08/23 09:21:22;;;;;;;6.72;2.00;;;20.90;91.70;;;;;;5094763;28;20046;-73
2022/08/23 09:23:49;;;;;;;3.45;1.80;;;20.90;91.70;;;;;;5094826;28;20028;-74
2022/08/23 09:26:25;;;;;;;3.22;1.70;;;21.10;90.80;;;;;;5093510;28;20028;-72
2022/08/23 09:28:55;;;;;;;4.03;2.20;;;21.20;89.40;;;;;;5094707;28;20024;-73
2022/08/23 09:31:46;;;;;;;4.07;1.67;;;21.30;90.50;;;;;;5094512;28;20031;-73
2022/08/23 09:34:35;;;;;;;3.92;1.80;;;21.30;90.00;;;;;;5094929;28;20020;-73
2022/08/23 09:37:11;;;;;;;2.83;1.48;;;21.40;85.20;;;;;;5093321;28;20026;-74
2022/08/23 09:39:43;;;;;;;4.32;2.15;;;21.40;86.20;;;;;;5093245;28;20026;-73
2022/08/23 09:42:30;;;;;;;3.78;1.85;;;21.50;85.10;;;;;;5094532;28;20056;-73
2022/08/23 09:44:56;;;;;;;4.40;1.73;;;21.70;84.90;;;;;;5094470;28;20050;-74
2022/08/23 09:47:32;;;;;;;3.90;1.80;;;21.80;85.80;;;;;;5094636;28;20476;-73
2022/08/23 09:50:08;;;;;;;3.30;1.85;;;21.80;81.30;;;;;;5093122;28;20035;-73
2022/08/23 09:52:37;;;;;;;3.95;1.85;;;21.90;80.80;;;;;;5094178;28;20032;-74
2022/08/23 09:55:25;;;;;;;4.43;1.70;;;22.00;83.50;;;;;;5094280;28;20483;-74
2022/08/23 09:57:51;;;;;;;3.70;1.80;;;22.10;84.40;;;;;;5094260;28;20031;-74
2022/08/23 10:00:32;;;;;;;2.80;1.80;;;22.20;85.80;;;;;;5094001;28;20027;-74
2022/08/23 10:03:18;;;;;;;4.18;2.15;;;22.30;82.60;;;;;;5092822;28;20059;-74
2022/08/23 10:05:49;;;;;;;4.13;1.77;;;22.50;85.10;;;;;;5093987;28;20054;-74
2022/08/23 10:08:28;;;;;;;4.40;2.20;;;22.50;82.00;;;;;;5093956;28;20032;-75
2022/08/23 10:11:15;;;;;;;3.05;1.95;;;22.70;83.90;;;;;;5094114;28;20032;-75
2022/08/23 10:13:42;;;;;;;3.35;1.70;;;22.70;81.00;;;;;;5094239;28;20074;-74
2022/08/23 10:16:32;;;;;;;3.05;1.65;;;22.80;80.80;;;;;;5093877;28;20024;-74
2022/08/23 10:19:17;;;;;;;3.63;2.10;;;23.00;81.20;;;;;;5093788;28;20031;-74
2022/08/23 10:21:59;;;;;;;3.55;1.90;;;23.10;81.50;;;;;;5094083;28;20051;-75
2022/08/23 10:24:36;;;;;;;5.90;1.40;;;23.30;78.40;;;;;;5093464;28;20020;-74
2022/08/23 10:30:12;;;;;;;4.18;1.70;;;23.50;78.60;;;;;;5093715;28;20058;-74
2022/08/23 10:33:02;;;;;;;5.43;1.95;;;23.60;77.70;;;;;;5093732;28;20036;-74
2022/08/23 10:35:51;;;;;;;3.25;1.50;;;23.70;76.50;;;;;;5092388;28;20376;-75
2022/08/23 10:38:37;;;;;;;3.50;1.83;;;23.80;76.20;;;;;;5093654;28;20029;-75
2022/08/23 10:41:25;;;;;;;3.33;1.40;;;24.00;74.70;;;;;;5092294;28;20036;-74
2022/08/23 10:44:07;;;;;;;2.95;1.40;;;24.20;77.70;;;;;;5093970;28;20028;-74
2022/08/23 10:46:40;;;;;;;4.07;1.50;;;24.20;74.80;;;;;;5093528;28;20028;-74
2022/08/23 10:49:09;;;;;;;2.58;1.35;;;24.20;74.20;;;;;;5093460;28;20380;-73
2022/08/23 10:51:39;;;;;;;2.58;1.58;;;24.20;73.50;;;;;;5093273;28;20048;-74
2022/08/23 10:54:09;;;;;;;2.90;1.48;;;24.10;72.20;;;;;;5092162;28;20020;-74
2022/08/23 10:56:37;;;;;;;5.30;1.50;;;24.00;72.40;;;;;;5093277;28;20364;-74
2022/08/23 10:59:13;;;;;;;4.80;1.55;;;24.00;74.30;;;;;;5093400;28;20418;-75
2022/08/23 11:02:02;;;;;;;4.50;1.70;;;24.10;71.70;;;;;;5093500;28;20016;-74
2022/08/23 11:04:43;;;;;;;2.50;1.40;;;24.00;73.10;;;;;;5093620;28;20024;-72
2022/08/23 11:07:20;;;;;;;;;;;24.10;71.40;;;;;;5093573;28;20067;-75
2022/08/23 11:10:14;;;;;;;3.80;1.65;;;24.10;72.20;;;;;;5093279;28;19904;-74
2022/08/23 11:13:23;;;;;;;2.65;1.42;;;24.20;71.10;;;;;;5075521;28;20485;-76
2022/08/23 11:16:21;;;;;;;3.13;1.50;;;24.40;73.60;;;;;;5054942;28;20032;-74
2022/08/23 11:18:48;;;;;;;4.43;1.75;;;24.60;68.30;;;;;;5041327;28;20449;-75
2022/08/23 11:21:17;;;;;;;2.83;1.83;;;24.70;68.70;;;;;;5070961;28;20115;-75
2022/08/23 11:23:47;;;;;;;;;;;24.80;69.20;;;;;;5075940;28;20039;-75
2022/08/23 11:26:22;;;;;;;;;;;24.90;68.70;;;;;;5076014;28;19989;-75
2022/08/23 11:28:50;;;;;;;;;;;25.00;70.70;;;;;;5077414;28;19912;-75
2022/08/23 11:31:16;;;;;;;;;;;25.10;70.00;;;;;;5077552;28;19935;-75
2022/08/23 11:33:47;;;;;;;;;;;25.20;69.10;;;;;;5075865;28;20361;-75
2022/08/23 11:36:15;;;;;;;;;;;25.30;67.20;;;;;;5077391;28;19909;-75
2022/08/23 11:38:47;;;;;;;;;;;25.30;65.50;;;;;;5075728;28;20279;-75
2022/08/23 11:41:18;;;;;;;;;;;25.40;69.90;;;;;;5077385;28;19911;-75
2022/08/23 11:43:48;;;;;;;;;;;25.40;66.10;;;;;;5076928;28;19908;-75
2022/08/23 11:46:20;;;;;;;;;;;25.50;68.20;;;;;;5077131;28;19999;-75
2022/08/23 11:48:53;;;;;;;;;;;25.60;68.90;;;;;;5077069;28;19987;-75
2022/08/23 11:51:37;;;;;;;;;;;25.60;69.90;;;;;;5076637;28;19913;-75
2022/08/23 11:54:18;;;;;;;;;;;25.80;69.60;;;;;;5076718;28;19957;-74
2022/08/23 11:56:54;;;;;;;;;;;25.90;64.30;;;;;;5075436;28;19915;-75
2022/08/23 11:59:28;;;;;;;;;;;25.80;62.80;;;;;;5077230;28;19904;-75
2022/08/23 12:01:54;;;;;;;;;;;25.70;60.70;;;;;;5076765;28;19962;-74
2022/08/23 12:04:26;;;;;;;;;;;25.60;61.10;;;;;;5076590;28;19905;-75
2022/08/23 12:06:56;;;;;;;;;;;25.60;61.30;;;;;;5076461;28;19904;-75
2022/08/23 12:09:22;;;;;;;;;;;25.70;63.00;;;;;;5076548;28;19915;-75
2022/08/23 12:11:53;;;;;;;;;;;25.80;65.10;;;;;;5074977;28;19916;-74
2022/08/23 12:14:31;;;;;;;;;;;26.00;61.50;;;;;;5076969;28;19908;-75
2022/08/23 12:16:58;;;;;;;;;;;25.90;59.40;;;;;;5076300;28;19991;-76
2022/08/23 12:19:41;;;;;;;;;;;25.80;60.00;;;;;;5076294;28;19919;-75
2022/08/23 12:22:12;;;;;;;;;;;25.80;60.10;;;;;;5075560;28;19905;-74
2022/08/23 12:24:41;;;;;;;;;;;25.80;62.00;;;;;;5075943;28;20375;-75
2022/08/23 12:27:06;;;;;;;;;;;25.90;64.50;;;;;;5076132;28;19908;-75
2022/08/23 12:29:44;;;;;;;;;;;26.00;61.70;;;;;;5076081;28;19971;-75
2022/08/23 12:32:19;;;;;;;;;;;26.20;59.40;;;;;;5074667;28;19908;-75
2022/08/23 12:35:14;;;;;;;;;;;26.10;60.20;;;;;;5074783;28;20338;-75
2022/08/23 12:37:44;;;;;;;;;;;26.10;59.50;;;;;;5061493;28;19908;-75
2022/08/23 12:40:20;;;;;;;;;;;26.10;60.90;;;;;;5076504;28;19910;-75
2022/08/23 12:42:46;;;;;;;;;;;26.00;60.60;;;;;;5076052;28;19904;-75
2022/08/23 12:45:14;;;;;;;;;;;26.10;61.60;;;;;;5075817;28;19904;-73
2022/08/23 12:47:43;;;;;;;;;;;26.20;58.40;;;;;;5076107;28;19905;-75
2022/08/23 12:50:12;;;;;;;;;;;26.20;59.20;;;;;;5074333;28;19904;-73
2022/08/23 12:52:38;;;;;;;;;;;26.20;58.30;;;;;;5075756;28;20374;-75
2022/08/23 12:55:17;;;;;;;;;;;26.20;56.10;;;;;;5076154;28;19987;-75
2022/08/23 12:57:43;;;;;;;;;;;26.00;59.80;;;;;;5075871;28;19904;-76
2022/08/23 13:00:27;;;;;;;;;;;26.20;62.60;;;;;;5075809;28;19957;-75
2022/08/23 13:03:02;;;;;;;;;;;26.50;56.70;;;;;;5075351;28;20069;-75
2022/08/23 13:05:33;;;;;;;;;;;26.70;59.20;;;;;;5075669;28;19904;-75
2022/08/23 13:08:01;;;;;;;;;;;26.90;58.40;;;;;;5075179;28;19912;-75
2022/08/23 13:10:27;;;;;;;;;;;26.80;54.90;;;;;;5075214;28;19953;-75
2022/08/23 13:12:52;;;;;;;;;;;26.70;56.10;;;;;;5075161;28;20338;-75
2022/08/23 13:15:36;;;;;;;;;;;26.70;57.10;;;;;;5075173;28;19908;-75
2022/08/23 13:18:02;;;;;;;;;;;27.00;56.00;;;;;;5075137;28;20253;-75
2022/08/23 13:20:28;;;;;;;;;;;27.20;56.20;;;;;;5075025;28;19915;-75
2022/08/23 13:22:54;;;;;;;;;;;27.20;57.70;;;;;;5075184;28;19919;-75
2022/08/23 13:25:28;;;;;;;;;;;27.30;54.20;;;;;;5075259;28;20033;-75
2022/08/23 13:27:55;;;;;;;;;;;27.30;54.80;;;;;;5074920;28;19908;-75
2022/08/23 13:30:23;;;;;;;;;;;27.10;54.30;;;;;;5075153;28;20296;-75